Manokotak, Alaska
Current Conditions -  °F | °C
As of 3:24 PM on Tuesday 25 Nov 2014 (Local Time) from PAMB Reporting Station
Moderate Fog Moderate Fog  
Wind Chill: 22°   Ceiling: 3900
Heat Index: 28°   Visibility: 0.25mi
Dew Point: 28°   Wind: 6mph
Humidity: 100%   Direction: 30°NNE
Pressure: 30.21"   Gusts: NA
Location:  58.98°N, 159.06°W
Report Text: PAMB 260024Z AUTO 03005KT 1/4SM FZFG SCT003 OVC039 M02/M02 A3021 RMK AO2 TSNO $
Loading
Personal Weather Stations






























Interactive Weather Map New forecast layout! Learn more

10-Day Weather Forecast

Advertisements
Track Severe Weather on mobile